createdAt,value
2018-08-30T00:00:20.968Z,990.45
2018-08-30T00:01:20.967Z,990.48
2018-08-30T00:02:20.971Z,990.45
2018-08-30T00:03:20.982Z,990.45
2018-08-30T00:04:20.979Z,990.49
2018-08-30T00:05:20.989Z,990.52
2018-08-30T00:06:20.983Z,990.53
2018-08-30T00:07:20.996Z,990.49
2018-08-30T00:08:20.991Z,990.57
2018-08-30T00:09:20.985Z,990.54
2018-08-30T00:10:20.987Z,990.57
2018-08-30T00:11:20.990Z,990.54
2018-08-30T00:12:20.988Z,990.58
2018-08-30T00:13:20.999Z,990.59
2018-08-30T00:14:20.994Z,990.63
2018-08-30T00:15:20.994Z,990.54
2018-08-30T00:16:20.994Z,990.55
2018-08-30T00:17:20.998Z,990.56
2018-08-30T00:18:21.003Z,990.59
2018-08-30T00:19:21.001Z,990.61
2018-08-30T00:20:21.007Z,990.6
2018-08-30T00:21:21.004Z,990.58
2018-08-30T00:22:21.007Z,990.55
2018-08-30T00:23:21.010Z,990.57
2018-08-30T00:24:21.012Z,990.57
2018-08-30T00:25:21.011Z,990.65
2018-08-30T00:26:21.012Z,990.61
2018-08-30T00:27:21.017Z,990.59
2018-08-30T00:28:21.026Z,990.58
2018-08-30T00:29:21.030Z,990.59
2018-08-30T00:30:21.024Z,990.63
2018-08-30T00:31:21.023Z,990.66
2018-08-30T00:32:21.021Z,990.66
2018-08-30T00:33:21.022Z,990.67
2018-08-30T00:34:21.026Z,990.69
2018-08-30T00:35:21.029Z,990.71
2018-08-30T00:36:21.030Z,990.74
2018-08-30T00:37:21.039Z,990.59
2018-08-30T00:38:21.030Z,990.73
2018-08-30T00:39:21.032Z,990.74
2018-08-30T00:40:21.034Z,990.74
2018-08-30T00:41:21.120Z,990.74
2018-08-30T00:42:21.046Z,990.76
2018-08-30T00:43:21.039Z,990.82
2018-08-30T00:44:21.041Z,990.77
2018-08-30T00:45:21.042Z,990.73
2018-08-30T00:46:21.044Z,990.76
2018-08-30T00:47:21.045Z,990.8
2018-08-30T00:48:21.064Z,990.76
2018-08-30T00:49:21.047Z,990.79
2018-08-30T00:50:21.059Z,990.77
2018-08-30T00:51:21.055Z,990.78
2018-08-30T00:52:21.061Z,990.72
2018-08-30T00:53:21.054Z,990.71
2018-08-30T00:54:21.055Z,990.8
2018-08-30T00:55:21.061Z,990.78
2018-08-30T00:56:21.059Z,990.79
2018-08-30T00:57:21.060Z,990.75
2018-08-30T00:58:21.070Z,990.83
2018-08-30T00:59:21.065Z,990.84
2018-08-30T01:00:21.071Z,990.91
2018-08-30T01:01:21.074Z,990.89
2018-08-30T01:02:21.070Z,990.94
2018-08-30T01:03:21.070Z,990.91
2018-08-30T01:04:21.071Z,990.97
2018-08-30T01:05:21.073Z,990.92
2018-08-30T01:06:21.085Z,990.98
2018-08-30T01:07:21.075Z,990.91
2018-08-30T01:08:21.077Z,990.98
2018-08-30T01:09:21.076Z,991.02
2018-08-30T01:10:21.080Z,991.02
2018-08-30T01:11:21.090Z,991.04
2018-08-30T01:12:21.083Z,991.07
2018-08-30T01:13:21.084Z,991.09
2018-08-30T01:14:21.093Z,991.12
2018-08-30T01:15:21.091Z,991.06
2018-08-30T01:16:21.088Z,991.11
2018-08-30T01:17:21.090Z,991.08
2018-08-30T01:18:21.098Z,991.16
2018-08-30T01:19:21.134Z,991.17
2018-08-30T01:20:21.098Z,991.17
2018-08-30T01:21:21.098Z,991.13
2018-08-30T01:22:21.099Z,991.13
2018-08-30T01:23:21.098Z,991.16
2018-08-30T01:24:21.098Z,991.17
2018-08-30T01:25:21.100Z,991.19
2018-08-30T01:26:21.103Z,991.15
2018-08-30T01:27:21.104Z,991.19
2018-08-30T01:28:21.105Z,991.2
2018-08-30T01:29:21.107Z,991.25
2018-08-30T01:30:21.109Z,991.19
2018-08-30T01:31:21.122Z,991.19
2018-08-30T01:32:21.112Z,991.24
2018-08-30T01:33:21.112Z,991.26
2018-08-30T01:34:21.113Z,991.28
2018-08-30T01:35:21.115Z,991.27
2018-08-30T01:36:21.116Z,991.34
2018-08-30T01:37:21.118Z,991.33
2018-08-30T01:38:21.119Z,991.33
2018-08-30T01:39:21.122Z,991.32
2018-08-30T01:40:21.121Z,991.35
2018-08-30T01:41:21.127Z,991.36
2018-08-30T01:42:21.127Z,991.32
2018-08-30T01:43:21.126Z,991.33
2018-08-30T01:44:21.128Z,991.4
2018-08-30T01:45:21.137Z,991.35
2018-08-30T01:46:21.140Z,991.44
2018-08-30T01:47:21.136Z,991.41
2018-08-30T01:48:21.133Z,991.43
2018-08-30T01:49:21.135Z,991.42
2018-08-30T01:50:21.136Z,991.46
2018-08-30T01:51:21.138Z,991.45
2018-08-30T01:52:21.137Z,991.51
2018-08-30T01:53:21.176Z,991.49
2018-08-30T01:54:21.139Z,991.52
2018-08-30T01:55:21.149Z,991.55
2018-08-30T01:56:21.143Z,991.57
2018-08-30T01:57:21.145Z,991.55
2018-08-30T01:58:21.145Z,991.59
2018-08-30T01:59:21.148Z,991.5
2018-08-30T02:00:21.151Z,991.53
2018-08-30T02:01:21.153Z,991.62
2018-08-30T02:02:21.153Z,991.57
2018-08-30T02:03:21.154Z,991.61
2018-08-30T02:04:21.153Z,991.61
2018-08-30T02:05:21.158Z,991.68
2018-08-30T02:06:21.156Z,991.68
2018-08-30T02:07:21.155Z,991.67
2018-08-30T02:08:21.160Z,991.71
2018-08-30T02:09:21.160Z,991.67
2018-08-30T02:10:21.164Z,991.66
2018-08-30T02:11:21.164Z,991.64
2018-08-30T02:12:21.171Z,991.68
2018-08-30T02:13:21.166Z,991.75
2018-08-30T02:14:21.168Z,991.77
2018-08-30T02:15:21.168Z,991.74
2018-08-30T02:16:21.168Z,991.81
2018-08-30T02:17:21.170Z,991.84
2018-08-30T02:18:21.175Z,991.83
2018-08-30T02:19:21.171Z,991.76
2018-08-30T02:20:21.176Z,991.88
2018-08-30T02:21:21.173Z,991.82
2018-08-30T02:22:21.175Z,991.86
2018-08-30T02:23:21.182Z,991.85
2018-08-30T02:24:21.178Z,991.92
2018-08-30T02:25:21.178Z,991.91
2018-08-30T02:26:21.180Z,991.99
2018-08-30T02:27:21.183Z,992.01
2018-08-30T02:28:21.179Z,991.94
2018-08-30T02:29:21.182Z,991.96
2018-08-30T02:30:21.184Z,991.98
2018-08-30T02:31:21.183Z,991.98
2018-08-30T02:32:21.189Z,992.05
2018-08-30T02:33:21.187Z,992.05
2018-08-30T02:34:21.187Z,992.01
2018-08-30T02:35:21.188Z,992
2018-08-30T02:36:21.191Z,992.04
2018-08-30T02:37:21.188Z,992.04
2018-08-30T02:38:21.193Z,992
2018-08-30T02:39:21.197Z,991.98
2018-08-30T02:40:21.193Z,992.04
2018-08-30T02:41:21.194Z,992
2018-08-30T02:42:21.195Z,992.04
2018-08-30T02:43:21.196Z,992.05
2018-08-30T02:44:21.194Z,992.04
2018-08-30T02:45:21.199Z,992.05
2018-08-30T02:46:21.198Z,992.07
2018-08-30T02:47:21.197Z,992.06
2018-08-30T02:48:21.203Z,992.06
2018-08-30T02:49:21.199Z,992.06
2018-08-30T02:50:21.201Z,992.08
2018-08-30T02:51:21.201Z,992.06
2018-08-30T02:52:21.206Z,992.05
2018-08-30T02:53:21.204Z,992.06
2018-08-30T02:54:21.203Z,992.03
2018-08-30T02:55:21.203Z,992.03
2018-08-30T02:56:21.206Z,992.01
2018-08-30T02:57:21.207Z,992
2018-08-30T02:58:21.205Z,991.95
2018-08-30T02:59:21.209Z,992.03
2018-08-30T03:00:21.208Z,992
2018-08-30T03:01:21.210Z,992.02
2018-08-30T03:02:21.209Z,991.98
2018-08-30T03:03:21.213Z,992.05
2018-08-30T03:04:21.229Z,992.01
2018-08-30T03:05:21.213Z,992
2018-08-30T03:06:21.210Z,992
2018-08-30T03:07:21.212Z,992.01
2018-08-30T03:08:21.219Z,992.02
2018-08-30T03:09:21.225Z,992.04
2018-08-30T03:10:21.218Z,992.07
2018-08-30T03:11:21.216Z,992.04
2018-08-30T03:12:21.215Z,992.06
2018-08-30T03:13:21.216Z,992.08
2018-08-30T03:14:21.220Z,992.04
2018-08-30T03:15:21.235Z,992.06
2018-08-30T03:16:21.229Z,992.02
2018-08-30T03:17:21.223Z,992.01
2018-08-30T03:18:21.221Z,992
2018-08-30T03:19:21.221Z,992.01
2018-08-30T03:20:21.224Z,992
2018-08-30T03:21:21.225Z,992
2018-08-30T03:22:21.229Z,992.02
2018-08-30T03:23:21.226Z,992.01
2018-08-30T03:24:21.228Z,992.03
2018-08-30T03:25:21.233Z,992.05
2018-08-30T03:26:21.230Z,992.09
2018-08-30T03:27:21.227Z,991.99
2018-08-30T03:28:21.227Z,992
2018-08-30T03:29:21.229Z,992.11
2018-08-30T03:30:21.339Z,992.07
2018-08-30T03:31:21.247Z,992.06
2018-08-30T03:32:22.043Z,992.03
2018-08-30T03:33:21.234Z,992.05
2018-08-30T03:34:21.235Z,992.04
2018-08-30T03:35:21.233Z,992.02
2018-08-30T03:36:21.244Z,992.07
2018-08-30T03:37:21.233Z,992.09
2018-08-30T03:38:21.237Z,992.08
2018-08-30T03:39:21.236Z,992.15
2018-08-30T03:40:21.238Z,992.12
2018-08-30T03:41:21.239Z,992.08
2018-08-30T03:42:21.240Z,992.06
2018-08-30T03:43:21.240Z,992.08
2018-08-30T03:44:21.260Z,992.09
2018-08-30T03:45:21.243Z,992.07
2018-08-30T03:46:21.250Z,992.06
2018-08-30T03:47:21.243Z,992.02
2018-08-30T03:48:21.241Z,992.07
2018-08-30T03:49:21.243Z,992.09
2018-08-30T03:50:21.247Z,992.11
2018-08-30T03:51:21.244Z,992.13
2018-08-30T03:52:21.246Z,992.16
2018-08-30T03:53:21.252Z,992.15
2018-08-30T03:54:21.244Z,992.18
2018-08-30T03:55:21.397Z,992.24
2018-08-30T03:56:21.249Z,992.25
2018-08-30T03:57:21.247Z,992.32
2018-08-30T03:58:21.249Z,992.26
2018-08-30T03:59:21.250Z,992.22
2018-08-30T04:00:21.265Z,992.3
2018-08-30T04:01:21.250Z,992.3
2018-08-30T04:02:21.255Z,992.26
2018-08-30T04:03:21.254Z,992.35
2018-08-30T04:04:21.263Z,992.27
2018-08-30T04:05:21.253Z,992.29
2018-08-30T04:06:21.256Z,992.31
2018-08-30T04:07:21.255Z,992.32
2018-08-30T04:08:21.261Z,992.4
2018-08-30T04:09:21.273Z,992.34
2018-08-30T04:10:21.259Z,992.38
2018-08-30T04:11:21.259Z,992.38
2018-08-30T04:12:21.260Z,992.38
2018-08-30T04:13:21.272Z,992.36
2018-08-30T04:14:21.263Z,992.42
2018-08-30T04:15:21.264Z,992.39
2018-08-30T04:16:21.261Z,992.35
2018-08-30T04:17:21.270Z,992.35
2018-08-30T04:18:21.271Z,992.35
2018-08-30T04:19:21.265Z,992.44
2018-08-30T04:20:21.269Z,992.42
2018-08-30T04:21:21.265Z,992.46
2018-08-30T04:22:21.267Z,992.41
2018-08-30T04:23:21.269Z,992.42
2018-08-30T04:24:21.268Z,992.48
2018-08-30T04:25:21.271Z,992.48
2018-08-30T04:26:21.272Z,992.48
2018-08-30T04:27:21.269Z,992.52
2018-08-30T04:28:21.271Z,992.48
2018-08-30T04:29:21.277Z,992.49
2018-08-30T04:30:21.273Z,992.49
2018-08-30T04:31:21.294Z,992.49
2018-08-30T04:32:21.273Z,992.49
2018-08-30T04:33:21.276Z,992.51
2018-08-30T04:34:21.273Z,992.54
2018-08-30T04:35:21.278Z,992.5
2018-08-30T04:36:21.280Z,992.53
2018-08-30T04:37:21.276Z,992.5
2018-08-30T04:38:21.286Z,992.53
2018-08-30T04:39:21.282Z,992.5
2018-08-30T04:40:21.278Z,992.55
2018-08-30T04:41:21.278Z,992.54
2018-08-30T04:42:21.359Z,992.56
2018-08-30T04:43:21.279Z,992.55
2018-08-30T04:44:21.283Z,992.56
2018-08-30T04:45:21.282Z,992.57
2018-08-30T04:46:21.283Z,992.59
2018-08-30T04:47:21.283Z,992.63
2018-08-30T04:48:21.282Z,992.6
2018-08-30T04:49:21.284Z,992.59
2018-08-30T04:50:21.340Z,992.6
2018-08-30T04:51:21.290Z,992.55
2018-08-30T04:52:21.285Z,992.62
2018-08-30T04:53:21.284Z,992.64
2018-08-30T04:54:21.287Z,992.6
2018-08-30T04:55:21.292Z,992.59
2018-08-30T04:56:21.523Z,992.58
2018-08-30T04:57:21.302Z,992.65
2018-08-30T04:58:21.292Z,992.61
2018-08-30T04:59:21.295Z,992.67
2018-08-30T05:00:21.292Z,992.67
2018-08-30T05:01:21.290Z,992.62
2018-08-30T05:02:21.290Z,992.68
2018-08-30T05:03:21.303Z,992.66
2018-08-30T05:04:21.301Z,992.67
2018-08-30T05:05:21.297Z,992.73
2018-08-30T05:06:21.299Z,992.72
2018-08-30T05:07:21.323Z,992.7
2018-08-30T05:08:21.302Z,992.69
2018-08-30T05:09:21.297Z,992.67
2018-08-30T05:10:21.295Z,992.72
2018-08-30T05:11:21.299Z,992.74
2018-08-30T05:12:21.301Z,992.74
2018-08-30T05:13:22.152Z,992.78
2018-08-30T05:14:21.313Z,992.8
2018-08-30T05:15:21.301Z,992.84
2018-08-30T05:16:21.327Z,992.89
2018-08-30T05:17:21.303Z,992.85
2018-08-30T05:18:21.303Z,992.88
2018-08-30T05:19:21.460Z,992.89
2018-08-30T05:20:21.310Z,992.89
2018-08-30T05:21:21.304Z,992.91
2018-08-30T05:22:21.308Z,992.88
2018-08-30T05:23:21.307Z,992.93
2018-08-30T05:24:21.306Z,992.95
2018-08-30T05:25:21.308Z,992.92
2018-08-30T05:26:21.309Z,992.96
2018-08-30T05:27:21.310Z,992.98
2018-08-30T05:28:21.309Z,993
2018-08-30T05:29:21.313Z,993.01
2018-08-30T05:30:21.316Z,992.99
2018-08-30T05:31:21.314Z,992.99
2018-08-30T05:32:21.321Z,993.02
2018-08-30T05:33:21.314Z,993.02
2018-08-30T05:34:21.315Z,993.04
2018-08-30T05:35:21.320Z,993.05
2018-08-30T05:36:21.322Z,993.07
2018-08-30T05:37:21.317Z,993.05
2018-08-30T05:38:21.321Z,993.07
2018-08-30T05:39:21.316Z,993.07
2018-08-30T05:40:21.318Z,993.03
2018-08-30T05:41:21.331Z,993.08
2018-08-30T05:42:21.326Z,993.08
2018-08-30T05:43:21.328Z,993.09
2018-08-30T05:44:21.324Z,993.06
2018-08-30T05:45:21.342Z,993.08
2018-08-30T05:46:21.325Z,993.06
2018-08-30T05:47:21.332Z,993.08
2018-08-30T05:48:21.324Z,993.11
2018-08-30T05:49:21.329Z,993.13
2018-08-30T05:50:21.329Z,993.11
2018-08-30T05:51:21.331Z,993.09
2018-08-30T05:52:21.347Z,993.08
2018-08-30T05:53:21.331Z,993.13
2018-08-30T05:54:21.343Z,993.07
2018-08-30T05:55:21.332Z,993.16
2018-08-30T05:56:21.332Z,993.13
2018-08-30T05:57:21.334Z,993.21
2018-08-30T05:58:21.332Z,993.19
2018-08-30T05:59:21.337Z,993.18
2018-08-30T06:00:21.334Z,993.2
2018-08-30T06:01:21.336Z,993.16
2018-08-30T06:02:21.335Z,993.15
2018-08-30T06:03:21.336Z,993.17
2018-08-30T06:04:21.384Z,993.16
2018-08-30T06:05:21.338Z,993.2
2018-08-30T06:06:21.340Z,993.27
2018-08-30T06:07:21.361Z,993.19
2018-08-30T06:08:21.365Z,993.25
2018-08-30T06:09:21.341Z,993.25
2018-08-30T06:10:21.340Z,993.23
2018-08-30T06:11:21.341Z,993.24
2018-08-30T06:12:21.338Z,993.25
2018-08-30T06:13:21.345Z,993.22
2018-08-30T06:14:21.342Z,993.23
2018-08-30T06:15:21.346Z,993.21
2018-08-30T06:16:21.342Z,993.26
2018-08-30T06:17:21.342Z,993.28
2018-08-30T06:18:21.343Z,993.29
2018-08-30T06:19:21.345Z,993.27
2018-08-30T06:20:21.344Z,993.36
2018-08-30T06:21:21.345Z,993.31
2018-08-30T06:22:21.346Z,993.35
2018-08-30T06:23:21.356Z,993.38
2018-08-30T06:24:21.345Z,993.4
2018-08-30T06:25:21.360Z,993.38
2018-08-30T06:26:21.350Z,993.38
2018-08-30T06:27:21.351Z,993.43
2018-08-30T06:28:21.351Z,993.4
2018-08-30T06:29:21.386Z,993.43
2018-08-30T06:30:21.352Z,993.45
2018-08-30T06:31:21.352Z,993.45
2018-08-30T06:32:21.351Z,993.45
2018-08-30T06:33:21.361Z,993.44
2018-08-30T06:34:21.351Z,993.5
2018-08-30T06:35:21.353Z,993.5
2018-08-30T06:36:21.357Z,993.51
2018-08-30T06:37:21.354Z,993.52
2018-08-30T06:38:21.359Z,993.54
2018-08-30T06:39:21.355Z,993.54
2018-08-30T06:40:21.356Z,993.56
2018-08-30T06:41:21.357Z,993.57
2018-08-30T06:42:21.360Z,993.53
2018-08-30T06:43:21.359Z,993.52
2018-08-30T06:44:21.360Z,993.6
2018-08-30T06:45:21.380Z,993.59
2018-08-30T06:46:21.363Z,993.57
2018-08-30T06:47:21.369Z,993.57
2018-08-30T06:48:21.366Z,993.61
2018-08-30T06:49:21.417Z,993.64
2018-08-30T06:50:21.366Z,993.63
2018-08-30T06:51:21.364Z,993.64
2018-08-30T06:52:21.372Z,993.68
2018-08-30T06:53:21.370Z,993.68
2018-08-30T06:54:21.371Z,993.7
2018-08-30T06:55:21.370Z,993.69
2018-08-30T06:56:21.383Z,993.67
2018-08-30T06:57:21.371Z,993.7
2018-08-30T06:58:21.386Z,993.75
2018-08-30T06:59:21.373Z,993.71
2018-08-30T07:00:21.375Z,993.75
2018-08-30T07:01:21.376Z,993.81
2018-08-30T07:02:21.376Z,993.76
2018-08-30T07:03:21.382Z,993.82
2018-08-30T07:04:21.462Z,993.86
2018-08-30T07:05:21.378Z,993.81
2018-08-30T07:06:21.379Z,993.8
2018-08-30T07:07:21.378Z,993.84
2018-08-30T07:08:21.379Z,993.92
2018-08-30T07:09:21.382Z,993.92
2018-08-30T07:10:21.382Z,993.91
2018-08-30T07:11:21.383Z,993.95
2018-08-30T07:12:21.383Z,993.88
2018-08-30T07:13:21.385Z,993.94
2018-08-30T07:14:21.384Z,993.93
2018-08-30T07:15:21.385Z,993.98
2018-08-30T07:16:21.385Z,993.98
2018-08-30T07:17:21.386Z,993.99
2018-08-30T07:18:21.385Z,994.01
2018-08-30T07:19:21.389Z,994.04
2018-08-30T07:20:21.396Z,994.07
2018-08-30T07:21:21.390Z,994.04
2018-08-30T07:22:21.389Z,994.08
2018-08-30T07:23:21.391Z,994.05
2018-08-30T07:24:21.459Z,994.05
2018-08-30T07:25:21.396Z,994.03
2018-08-30T07:26:21.393Z,994.02
2018-08-30T07:27:21.400Z,994.02
2018-08-30T07:28:21.405Z,994.04
2018-08-30T07:29:21.394Z,994.05
2018-08-30T07:30:21.405Z,994.07
2018-08-30T07:31:21.397Z,994.06
2018-08-30T07:32:21.404Z,994.11
2018-08-30T07:33:21.400Z,994.13
2018-08-30T07:34:21.487Z,994.22
2018-08-30T07:35:21.403Z,994.2
2018-08-30T07:36:21.404Z,994.18
2018-08-30T07:37:21.403Z,994.23
2018-08-30T07:38:21.414Z,994.23
2018-08-30T07:39:21.410Z,994.22
2018-08-30T07:40:21.414Z,994.23
2018-08-30T07:41:21.409Z,994.16
2018-08-30T07:42:21.415Z,994.21
2018-08-30T07:43:21.416Z,994.1
2018-08-30T07:44:21.531Z,994.16
2018-08-30T07:45:21.414Z,994.2
2018-08-30T07:46:21.416Z,994.18
2018-08-30T07:47:21.478Z,994.18
2018-08-30T07:48:21.419Z,994.26
2018-08-30T07:49:25.426Z,994.22
2018-08-30T07:50:21.437Z,994.28
2018-08-30T07:51:21.439Z,994.36
2018-08-30T07:52:21.428Z,994.32
2018-08-30T07:53:21.430Z,994.3
2018-08-30T07:54:21.463Z,994.28
2018-08-30T07:55:21.431Z,994.22
2018-08-30T07:56:21.436Z,994.24
2018-08-30T07:57:21.499Z,994.27
2018-08-30T07:58:21.438Z,994.29
2018-08-30T07:59:21.438Z,994.28
2018-08-30T08:00:21.457Z,994.38
2018-08-30T08:01:21.444Z,994.43
2018-08-30T08:02:21.443Z,994.36
2018-08-30T08:03:21.449Z,994.37
2018-08-30T08:04:21.447Z,994.38
2018-08-30T08:05:21.450Z,994.34
2018-08-30T08:06:21.462Z,994.36
2018-08-30T08:07:21.572Z,994.42
2018-08-30T08:08:21.459Z,994.37
2018-08-30T08:09:21.461Z,994.44
2018-08-30T08:10:21.461Z,994.42
2018-08-30T08:11:21.475Z,994.44
2018-08-30T08:12:21.474Z,994.41
2018-08-30T08:13:21.466Z,994.38
2018-08-30T08:14:21.470Z,994.44
2018-08-30T08:15:21.471Z,994.41
2018-08-30T08:16:21.477Z,994.44
2018-08-30T08:17:21.479Z,994.45
2018-08-30T08:18:21.479Z,994.45
2018-08-30T08:19:21.481Z,994.51
2018-08-30T08:20:21.491Z,994.48
2018-08-30T08:21:21.490Z,994.55
2018-08-30T08:22:21.489Z,994.62
2018-08-30T08:23:21.492Z,994.59
2018-08-30T08:24:21.492Z,994.58
2018-08-30T08:25:21.539Z,994.64
2018-08-30T08:26:21.497Z,994.6
2018-08-30T08:27:21.503Z,994.62
2018-08-30T08:28:21.504Z,994.66
2018-08-30T08:29:21.499Z,994.64
2018-08-30T08:30:21.508Z,994.65
2018-08-30T08:31:21.588Z,994.67
2018-08-30T08:32:21.509Z,994.67
2018-08-30T08:33:21.513Z,994.68
2018-08-30T08:34:21.514Z,994.69
2018-08-30T08:35:21.512Z,994.72
2018-08-30T08:36:21.515Z,994.75
2018-08-30T08:37:21.517Z,994.67
2018-08-30T08:38:21.513Z,994.7
2018-08-30T08:39:21.515Z,994.7
2018-08-30T08:40:21.534Z,994.7
2018-08-30T08:41:21.521Z,994.65
2018-08-30T08:42:21.521Z,994.69
2018-08-30T08:43:21.525Z,994.62
2018-08-30T08:44:21.529Z,994.64
2018-08-30T08:45:21.534Z,994.67
2018-08-30T08:46:21.533Z,994.61
2018-08-30T08:47:21.531Z,994.68
2018-08-30T08:48:21.537Z,994.67
2018-08-30T08:49:21.540Z,994.63
2018-08-30T08:50:21.540Z,994.66
2018-08-30T08:51:21.545Z,994.61
2018-08-30T08:52:21.545Z,994.66
2018-08-30T08:53:21.545Z,994.69
2018-08-30T08:54:21.566Z,994.68
2018-08-30T08:55:21.552Z,994.73
2018-08-30T08:56:21.557Z,994.75
2018-08-30T08:57:21.564Z,994.76
2018-08-30T08:58:21.559Z,994.82
2018-08-30T08:59:21.619Z,994.82
2018-08-30T09:00:21.563Z,994.81
2018-08-30T09:01:21.652Z,994.78
2018-08-30T09:02:21.569Z,994.79
2018-08-30T09:03:21.647Z,994.81
2018-08-30T09:04:21.657Z,994.76
2018-08-30T09:05:21.576Z,994.74
2018-08-30T09:06:21.578Z,994.75
2018-08-30T09:07:21.596Z,994.78
2018-08-30T09:08:21.590Z,994.77
2018-08-30T09:09:21.586Z,994.82
2018-08-30T09:10:21.587Z,994.82
2018-08-30T09:11:21.588Z,994.91
2018-08-30T09:12:21.591Z,994.84
2018-08-30T09:13:21.589Z,994.83
2018-08-30T09:14:21.608Z,994.85
2018-08-30T09:15:21.595Z,994.86
2018-08-30T09:16:21.602Z,994.79
2018-08-30T09:17:21.606Z,994.78
2018-08-30T09:18:21.675Z,994.87
2018-08-30T09:19:21.610Z,994.85
2018-08-30T09:20:24.063Z,994.87
2018-08-30T09:21:21.636Z,994.79
2018-08-30T09:22:21.614Z,994.86
2018-08-30T09:23:21.617Z,994.82
2018-08-30T09:24:21.621Z,994.87
2018-08-30T09:25:21.626Z,994.85
2018-08-30T09:26:21.628Z,994.84
2018-08-30T09:27:21.629Z,994.81
2018-08-30T09:28:21.635Z,994.79
2018-08-30T09:29:21.637Z,994.85
2018-08-30T09:30:21.639Z,994.76
2018-08-30T09:31:21.641Z,994.77
2018-08-30T09:32:21.645Z,994.77
2018-08-30T09:33:21.647Z,994.75
2018-08-30T09:34:21.646Z,994.74
2018-08-30T09:35:21.654Z,994.72
2018-08-30T09:36:21.656Z,994.75
2018-08-30T09:37:21.659Z,994.72
2018-08-30T09:38:21.665Z,994.7
2018-08-30T09:39:21.660Z,994.7
2018-08-30T09:40:21.670Z,994.68
2018-08-30T09:41:21.664Z,994.78
2018-08-30T09:42:21.670Z,994.85
2018-08-30T09:43:21.673Z,994.83
2018-08-30T09:44:21.674Z,994.8
2018-08-30T09:45:21.678Z,994.81
2018-08-30T09:46:21.688Z,994.73
2018-08-30T09:47:21.683Z,994.69
2018-08-30T09:48:21.686Z,994.7
2018-08-30T09:49:21.723Z,994.59
2018-08-30T09:50:21.693Z,994.69
2018-08-30T09:51:21.696Z,994.68
2018-08-30T09:52:21.707Z,994.67
2018-08-30T09:53:21.704Z,994.63
2018-08-30T09:54:21.711Z,994.63
2018-08-30T09:55:21.728Z,994.6
2018-08-30T09:56:21.715Z,994.59
2018-08-30T09:57:21.880Z,994.6
2018-08-30T09:58:21.727Z,994.56
2018-08-30T09:59:21.723Z,994.58
2018-08-30T10:00:21.729Z,994.62
2018-08-30T10:01:21.735Z,994.63
2018-08-30T10:02:21.733Z,994.68
2018-08-30T10:03:21.743Z,994.71
2018-08-30T10:04:21.742Z,994.68
2018-08-30T10:05:21.747Z,994.73
2018-08-30T10:06:21.747Z,994.78
2018-08-30T10:07:21.753Z,994.74
2018-08-30T10:08:21.756Z,994.71
2018-08-30T10:09:21.759Z,994.72
2018-08-30T10:10:21.762Z,994.73
2018-08-30T10:11:21.766Z,994.71
2018-08-30T10:12:21.767Z,994.63
2018-08-30T10:13:21.773Z,994.63
2018-08-30T10:14:21.787Z,994.61
2018-08-30T10:15:21.782Z,994.61
2018-08-30T10:16:21.782Z,994.6
2018-08-30T10:17:21.787Z,994.62
2018-08-30T10:18:21.786Z,994.67
2018-08-30T10:19:21.791Z,994.69
2018-08-30T10:20:21.793Z,994.57
2018-08-30T10:21:21.836Z,994.54
2018-08-30T10:22:21.799Z,994.57
2018-08-30T10:23:21.811Z,994.6
2018-08-30T10:24:21.818Z,994.53
2018-08-30T10:25:21.867Z,994.4
2018-08-30T10:26:21.811Z,994.36
2018-08-30T10:27:21.819Z,994.33
2018-08-30T10:28:21.817Z,994.34
2018-08-30T10:29:21.820Z,994.37
2018-08-30T10:30:21.824Z,994.37
2018-08-30T10:31:21.860Z,994.38
2018-08-30T10:32:21.829Z,994.41
2018-08-30T10:33:21.835Z,994.4
2018-08-30T10:34:21.835Z,994.46
2018-08-30T10:35:21.839Z,994.46
2018-08-30T10:36:21.841Z,994.49
2018-08-30T10:37:21.845Z,994.5
2018-08-30T10:38:21.846Z,994.48
2018-08-30T10:39:21.848Z,994.5
2018-08-30T10:40:21.852Z,994.49
2018-08-30T10:41:21.854Z,994.44
2018-08-30T10:42:21.857Z,994.44
2018-08-30T10:43:21.862Z,994.44
2018-08-30T10:44:21.863Z,994.44
2018-08-30T10:45:21.874Z,994.49
2018-08-30T10:46:21.875Z,994.51
2018-08-30T10:47:21.874Z,994.55
2018-08-30T10:48:21.874Z,994.59
2018-08-30T10:49:21.958Z,994.56
2018-08-30T10:50:21.879Z,994.61
2018-08-30T10:51:21.879Z,994.65
2018-08-30T10:52:21.885Z,994.64
2018-08-30T10:53:21.894Z,994.62
2018-08-30T10:54:21.894Z,994.6
2018-08-30T10:55:21.893Z,994.59
2018-08-30T10:56:21.958Z,994.55
2018-08-30T10:57:21.895Z,994.5
2018-08-30T10:58:21.898Z,994.54
2018-08-30T10:59:21.905Z,994.52
2018-08-30T11:00:21.905Z,994.47
2018-08-30T11:01:21.908Z,994.5
2018-08-30T11:02:21.908Z,994.5
2018-08-30T11:03:21.913Z,994.56
2018-08-30T11:04:21.957Z,994.5
2018-08-30T11:05:21.916Z,994.49
2018-08-30T11:06:21.920Z,994.5
2018-08-30T11:07:21.924Z,994.53
2018-08-30T11:08:21.924Z,994.55
2018-08-30T11:09:21.928Z,994.58
2018-08-30T11:10:21.928Z,994.61
2018-08-30T11:11:21.934Z,994.6
2018-08-30T11:12:21.933Z,994.65
2018-08-30T11:13:21.982Z,994.66
2018-08-30T11:14:21.943Z,994.67
2018-08-30T11:15:21.942Z,994.7
2018-08-30T11:16:21.947Z,994.68
2018-08-30T11:17:21.946Z,994.68
2018-08-30T11:18:21.952Z,994.64
2018-08-30T11:19:21.956Z,994.61
2018-08-30T11:20:21.957Z,994.57
2018-08-30T11:21:21.957Z,994.59
2018-08-30T11:22:21.963Z,994.56
2018-08-30T11:23:21.964Z,994.57
2018-08-30T11:24:21.966Z,994.53
2018-08-30T11:25:21.967Z,994.56
2018-08-30T11:26:21.974Z,994.61
2018-08-30T11:27:21.979Z,994.61
2018-08-30T11:28:21.977Z,994.66
2018-08-30T11:29:21.982Z,994.65
2018-08-30T11:30:21.990Z,994.67
2018-08-30T11:31:21.995Z,994.63
2018-08-30T11:32:22.005Z,994.57
2018-08-30T11:33:21.992Z,994.54
2018-08-30T11:34:22.007Z,994.51
2018-08-30T11:35:22.005Z,994.54
2018-08-30T11:36:22.021Z,994.61
2018-08-30T11:37:22.035Z,994.57
2018-08-30T11:38:22.027Z,994.56
2018-08-30T11:39:22.022Z,994.54
2018-08-30T11:40:22.026Z,994.53
2018-08-30T11:41:22.112Z,994.5
2018-08-30T11:42:22.055Z,994.54
2018-08-30T11:43:22.084Z,994.61
2018-08-30T11:44:22.027Z,994.56
2018-08-30T11:45:22.034Z,994.59
2018-08-30T11:46:22.038Z,994.55
2018-08-30T11:47:22.040Z,994.61
2018-08-30T11:48:22.045Z,994.61
2018-08-30T11:49:22.046Z,994.5
2018-08-30T11:50:22.070Z,994.58
2018-08-30T11:51:23.686Z,994.56
2018-08-30T11:52:22.163Z,994.58
2018-08-30T11:53:22.058Z,994.58
2018-08-30T11:54:22.110Z,994.65
2018-08-30T11:55:22.074Z,994.71
2018-08-30T11:56:22.119Z,994.76
2018-08-30T11:57:22.083Z,994.74
2018-08-30T11:58:22.123Z,994.72
2018-08-30T11:59:22.091Z,994.71
2018-08-30T12:00:22.094Z,994.7
2018-08-30T12:01:22.091Z,994.75
2018-08-30T12:02:22.095Z,994.64
2018-08-30T12:03:22.094Z,994.63
2018-08-30T12:04:22.108Z,994.57
2018-08-30T12:05:22.102Z,994.64
2018-08-30T12:06:22.114Z,994.68
2018-08-30T12:07:22.109Z,994.59
2018-08-30T12:08:22.202Z,994.58
2018-08-30T12:09:22.125Z,994.6
2018-08-30T12:10:22.324Z,994.58
2018-08-30T12:11:22.166Z,994.62
2018-08-30T12:12:22.126Z,994.65
2018-08-30T12:13:22.132Z,994.6
2018-08-30T12:14:22.139Z,994.62
2018-08-30T12:15:22.140Z,994.56
2018-08-30T12:16:22.141Z,994.66
2018-08-30T12:17:22.146Z,994.6
2018-08-30T12:18:22.149Z,994.58
2018-08-30T12:19:22.150Z,994.65
2018-08-30T12:20:22.197Z,994.65
2018-08-30T12:21:22.154Z,994.65
2018-08-30T12:22:22.160Z,994.64
2018-08-30T12:23:22.163Z,994.69
2018-08-30T12:24:22.168Z,994.7
2018-08-30T12:25:22.174Z,994.57
2018-08-30T12:26:22.177Z,994.57
2018-08-30T12:27:22.187Z,994.58
2018-08-30T12:28:22.210Z,994.56
2018-08-30T12:29:22.199Z,994.46
2018-08-30T12:30:22.226Z,994.53
2018-08-30T12:31:22.196Z,994.49